createdAt,value
2022-09-16T00:00:45.380Z,8.80
2022-09-16T00:03:47.770Z,8.80
2022-09-16T00:06:50.009Z,8.90
2022-09-16T00:09:52.145Z,8.80
2022-09-16T00:12:54.188Z,8.90
2022-09-16T00:15:56.464Z,8.90
2022-09-16T00:19:00.772Z,8.90
2022-09-16T00:22:03.103Z,8.90
2022-09-16T00:25:05.761Z,8.90
2022-09-16T00:28:07.864Z,8.90
2022-09-16T00:31:10.254Z,8.90
2022-09-16T00:34:12.347Z,8.80
2022-09-16T00:37:14.414Z,8.80
2022-09-16T00:40:16.625Z,8.80
2022-09-16T00:43:19.337Z,8.80
2022-09-16T00:46:34.699Z,8.70
2022-09-16T00:49:36.831Z,8.70
2022-09-16T00:52:39.736Z,8.70
2022-09-16T00:55:41.792Z,8.70
2022-09-16T00:58:51.257Z,8.70
2022-09-16T01:01:54.623Z,8.70
2022-09-16T01:05:17.731Z,8.70
2022-09-16T01:08:19.789Z,8.60
2022-09-16T01:11:21.876Z,8.70
2022-09-16T01:14:42.918Z,8.60
2022-09-16T01:17:54.288Z,8.60
2022-09-16T01:21:15.450Z,8.50
2022-09-16T01:24:41.215Z,8.50
2022-09-16T01:28:19.929Z,8.50
2022-09-16T01:31:50.301Z,8.30
2022-09-16T01:35:11.773Z,8.30
2022-09-16T01:38:30.432Z,8.20
2022-09-16T01:42:08.804Z,8.10
2022-09-16T01:45:26.891Z,8.00
2022-09-16T01:48:44.513Z,8.10
2022-09-16T01:52:21.397Z,8.10
2022-09-16T01:56:00.853Z,8.20
2022-09-16T01:59:18.236Z,8.10
2022-09-16T02:02:23.475Z,8.10
2022-09-16T02:05:49.530Z,8.20
2022-09-16T02:08:57.926Z,8.10
2022-09-16T02:12:05.509Z,8.10
2022-09-16T02:15:09.683Z,8.00
2022-09-16T02:18:13.608Z,8.00
2022-09-16T02:21:16.211Z,8.00
2022-09-16T02:24:19.847Z,7.90
2022-09-16T02:27:22.267Z,8.00
2022-09-16T02:30:24.348Z,8.00
2022-09-16T02:33:49.242Z,8.00
2022-09-16T02:36:56.427Z,8.00
2022-09-16T02:40:02.395Z,8.00
2022-09-16T02:43:05.384Z,8.00
2022-09-16T02:46:29.421Z,8.00
2022-09-16T02:49:44.147Z,7.90
2022-09-16T02:53:21.616Z,7.80
2022-09-16T02:56:29.830Z,7.80
2022-09-16T02:59:31.938Z,7.80
2022-09-16T03:02:34.873Z,7.80
2022-09-16T03:06:08.924Z,7.80
2022-09-16T03:09:15.179Z,7.80
2022-09-16T03:12:34.604Z,7.70
2022-09-16T03:16:10.263Z,7.60
2022-09-16T03:20:12.088Z,7.60
2022-09-16T03:23:49.572Z,7.60
2022-09-16T03:27:19.144Z,7.70
2022-09-16T03:30:21.234Z,7.70
2022-09-16T03:33:38.006Z,7.70
2022-09-16T03:36:44.415Z,7.60
2022-09-16T03:39:56.126Z,7.50
2022-09-16T03:42:58.349Z,7.50
2022-09-16T03:46:00.577Z,7.50
2022-09-16T03:49:03.070Z,7.50
2022-09-16T03:52:05.701Z,7.40
2022-09-16T03:55:08.791Z,7.50
2022-09-16T03:58:10.907Z,7.50
2022-09-16T04:01:14.356Z,7.50
2022-09-16T04:04:16.435Z,7.40
2022-09-16T04:07:18.517Z,7.30
2022-09-16T04:10:20.661Z,7.40
2022-09-16T04:13:22.804Z,7.30
2022-09-16T04:16:25.419Z,7.30
2022-09-16T04:19:27.530Z,7.20
2022-09-16T04:22:30.764Z,7.20
2022-09-16T04:25:33.839Z,7.10
2022-09-16T04:28:35.919Z,7.10
2022-09-16T04:31:38.090Z,7.00
2022-09-16T04:34:40.226Z,7.00
2022-09-16T04:37:42.327Z,6.90
2022-09-16T04:40:44.394Z,6.90
2022-09-16T04:43:47.137Z,6.80
2022-09-16T04:46:49.230Z,6.80
2022-09-16T04:49:51.385Z,6.90
2022-09-16T04:52:53.530Z,6.90
2022-09-16T04:56:05.220Z,7.00
2022-09-16T04:59:07.319Z,7.10
2022-09-16T05:02:09.478Z,7.20
2022-09-16T05:05:12.174Z,7.10
2022-09-16T05:08:14.365Z,7.10
2022-09-16T05:11:24.720Z,7.00
2022-09-16T05:14:27.503Z,7.00
2022-09-16T05:17:51.298Z,7.00
2022-09-16T05:21:01.171Z,7.10
2022-09-16T05:24:05.225Z,7.00
2022-09-16T05:27:07.274Z,6.90
2022-09-16T05:30:10.477Z,6.90
2022-09-16T05:33:12.620Z,6.70
2022-09-16T05:36:17.063Z,6.70
2022-09-16T05:39:24.006Z,6.70
2022-09-16T05:42:26.980Z,6.60
2022-09-16T05:45:32.349Z,6.60
2022-09-16T05:48:35.309Z,6.60
2022-09-16T05:51:38.571Z,6.60
2022-09-16T05:54:40.643Z,6.60
2022-09-16T05:57:42.684Z,6.60
2022-09-16T06:00:45.148Z,6.60
2022-09-16T06:03:48.367Z,6.70
2022-09-16T06:06:50.527Z,6.60
2022-09-16T06:09:53.096Z,6.60
2022-09-16T06:16:15.008Z,6.60
2022-09-16T06:19:18.102Z,6.60
2022-09-16T06:22:20.154Z,6.60
2022-09-16T06:25:22.272Z,6.60
2022-09-16T06:28:24.348Z,6.70
2022-09-16T06:31:27.579Z,6.70
2022-09-16T06:34:29.931Z,6.80
2022-09-16T06:37:32.074Z,6.90
2022-09-16T06:40:34.232Z,6.90
2022-09-16T06:43:36.524Z,7.00
2022-09-16T06:46:38.841Z,7.10
2022-09-16T06:49:40.908Z,7.10
2022-09-16T06:52:43.047Z,7.10
2022-09-16T06:55:45.128Z,7.10
2022-09-16T06:58:49.920Z,7.20
2022-09-16T07:01:52.959Z,7.30
2022-09-16T07:04:55.169Z,7.40
2022-09-16T07:07:58.458Z,7.60
2022-09-16T07:11:05.469Z,7.60
2022-09-16T07:14:09.428Z,7.70
2022-09-16T07:17:11.544Z,7.80
2022-09-16T07:20:13.631Z,7.90
2022-09-16T07:23:15.719Z,7.90
2022-09-16T07:26:23.179Z,8.00
2022-09-16T07:29:25.352Z,8.00
2022-09-16T07:32:27.420Z,8.10
2022-09-16T07:35:29.556Z,8.20
2022-09-16T07:38:31.820Z,8.20
2022-09-16T07:41:36.647Z,8.00
2022-09-16T07:44:38.704Z,7.90
2022-09-16T07:47:40.787Z,7.80
2022-09-16T07:50:42.869Z,7.90
2022-09-16T07:53:45.355Z,8.00
2022-09-16T07:56:47.540Z,8.20
2022-09-16T07:59:50.155Z,8.40
2022-09-16T08:02:57.805Z,8.50
2022-09-16T08:06:22.342Z,8.60
2022-09-16T08:09:37.620Z,8.60
2022-09-16T08:12:40.915Z,8.80
2022-09-16T08:15:42.952Z,8.90
2022-09-16T08:18:46.600Z,9.10
2022-09-16T08:21:48.717Z,9.10
2022-09-16T08:24:50.758Z,9.00
2022-09-16T08:27:55.607Z,9.00
2022-09-16T08:37:41.440Z,9.50
2022-09-16T08:40:44.920Z,9.40
2022-09-16T08:44:01.697Z,9.50
2022-09-16T08:47:38.460Z,9.70
2022-09-16T08:50:42.360Z,9.60
2022-09-16T08:54:06.673Z,9.60
2022-09-16T08:57:17.542Z,9.70
2022-09-16T09:00:20.260Z,9.70
2022-09-16T09:03:37.961Z,9.70
2022-09-16T09:07:01.412Z,9.80
2022-09-16T09:10:18.515Z,10.00
2022-09-16T09:13:38.531Z,10.00
2022-09-16T09:17:04.838Z,10.10
2022-09-16T09:20:12.658Z,10.20
2022-09-16T09:23:40.476Z,10.20
2022-09-16T09:27:17.155Z,10.40
2022-09-16T09:30:28.529Z,10.60
2022-09-16T09:33:47.088Z,10.70
2022-09-16T09:37:04.990Z,10.90
2022-09-16T09:40:19.544Z,11.10
2022-09-16T09:43:53.407Z,11.10
2022-09-16T09:46:59.285Z,11.00
2022-09-16T09:50:36.576Z,10.40
2022-09-16T09:53:47.096Z,10.60
2022-09-16T09:56:49.315Z,10.40
2022-09-16T10:00:00.889Z,10.70
2022-09-16T10:03:11.791Z,10.80
2022-09-16T10:06:13.946Z,10.90
2022-09-16T10:09:16.355Z,10.60
2022-09-16T10:12:31.844Z,11.20
2022-09-16T10:15:35.109Z,11.20
2022-09-16T10:18:37.210Z,10.90
2022-09-16T10:22:19.319Z,10.90
2022-09-16T10:25:25.174Z,10.80
2022-09-16T10:28:28.374Z,11.00
2022-09-16T10:31:36.727Z,11.00
2022-09-16T10:34:40.185Z,11.70
2022-09-16T10:37:48.151Z,11.80
2022-09-16T10:41:14.358Z,11.90
2022-09-16T10:44:25.212Z,11.40
2022-09-16T10:47:32.387Z,11.80
2022-09-16T10:50:34.498Z,11.70
2022-09-16T10:53:43.669Z,12.00
2022-09-16T10:56:51.148Z,12.70
2022-09-16T11:00:07.372Z,13.10
2022-09-16T11:03:37.006Z,13.00
2022-09-16T11:07:09.038Z,11.90
2022-09-16T11:10:38.731Z,11.30
2022-09-16T11:13:52.796Z,11.80
2022-09-16T11:17:57.848Z,12.60
2022-09-16T11:21:38.799Z,12.90
2022-09-16T11:25:14.131Z,12.70
2022-09-16T11:28:55.472Z,13.00
2022-09-16T11:32:35.968Z,13.60
2022-09-16T11:36:36.860Z,12.90
2022-09-16T11:39:57.461Z,12.90
2022-09-16T11:43:34.824Z,12.50
2022-09-16T11:47:16.760Z,12.80
2022-09-16T11:50:45.722Z,12.80
2022-09-16T11:54:02.706Z,12.30
2022-09-16T11:57:13.255Z,11.80
2022-09-16T12:00:18.478Z,13.40
2022-09-16T12:03:48.605Z,14.10
2022-09-16T12:07:10.150Z,13.50
2022-09-16T12:10:30.301Z,12.70
2022-09-16T12:13:37.319Z,13.40
2022-09-16T12:17:06.542Z,13.30
2022-09-16T12:20:19.395Z,13.90
2022-09-16T12:23:25.464Z,13.20
2022-09-16T12:26:33.399Z,13.70
2022-09-16T12:29:59.479Z,14.20
2022-09-16T12:33:38.993Z,13.30
2022-09-16T12:36:44.802Z,12.90
2022-09-16T12:39:49.857Z,13.40
2022-09-16T12:43:11.011Z,14.20
2022-09-16T12:46:59.823Z,15.00
2022-09-16T12:50:54.576Z,14.10
2022-09-16T12:54:00.836Z,14.90
2022-09-16T12:57:47.108Z,14.40
2022-09-16T13:01:24.724Z,13.80
2022-09-16T13:04:39.780Z,12.80
2022-09-16T13:07:41.867Z,13.30
2022-09-16T13:10:57.772Z,14.60
2022-09-16T13:14:14.248Z,15.30
2022-09-16T13:17:29.349Z,15.00
2022-09-16T13:20:39.395Z,14.00
2022-09-16T13:23:45.022Z,13.50
2022-09-16T13:26:47.413Z,14.60
2022-09-16T13:29:49.514Z,15.90
2022-09-16T13:32:51.445Z,16.40
2022-09-16T13:36:16.762Z,15.10
2022-09-16T13:39:31.413Z,14.30
2022-09-16T13:42:33.506Z,15.70
2022-09-16T13:45:41.072Z,16.80
2022-09-16T13:49:02.871Z,15.90
2022-09-16T13:52:28.096Z,15.90
2022-09-16T13:55:30.136Z,14.20
2022-09-16T13:58:59.287Z,13.90
2022-09-16T14:02:13.031Z,14.90
2022-09-16T14:05:46.229Z,13.80
2022-09-16T14:09:26.283Z,13.80
2022-09-16T14:13:11.039Z,14.50
2022-09-16T14:16:23.064Z,16.50
2022-09-16T14:19:32.514Z,16.00
2022-09-16T14:22:34.606Z,16.10
2022-09-16T14:25:37.016Z,15.40
2022-09-16T14:28:39.583Z,14.30
2022-09-16T14:31:45.323Z,13.70
2022-09-16T14:34:47.698Z,13.60
2022-09-16T14:37:56.582Z,13.20
2022-09-16T14:40:58.808Z,13.10
2022-09-16T14:44:19.051Z,13.40
2022-09-16T14:47:47.395Z,13.60
2022-09-16T14:50:52.596Z,13.20
2022-09-16T14:54:12.166Z,13.30
2022-09-16T14:57:23.046Z,13.30
2022-09-16T15:00:46.938Z,13.20
2022-09-16T15:04:03.926Z,13.20
2022-09-16T15:07:12.544Z,15.80
2022-09-16T15:10:30.295Z,14.40
2022-09-16T15:13:42.215Z,14.30
2022-09-16T15:16:51.190Z,16.30
2022-09-16T15:19:58.718Z,15.20
2022-09-16T15:23:02.830Z,18.60
2022-09-16T15:26:16.261Z,18.80
2022-09-16T15:29:18.331Z,18.50
2022-09-16T15:32:24.126Z,15.90
2022-09-16T15:35:27.400Z,15.00
2022-09-16T15:38:30.069Z,14.40
2022-09-16T15:41:32.310Z,13.60
2022-09-16T15:44:37.414Z,12.50
2022-09-16T15:47:54.731Z,12.40
2022-09-16T15:51:02.523Z,13.10
2022-09-16T15:54:14.449Z,12.80
2022-09-16T15:57:31.879Z,12.90
2022-09-16T16:00:57.640Z,13.70
2022-09-16T16:04:01.125Z,17.60
2022-09-16T16:07:05.265Z,18.70
2022-09-16T16:10:23.826Z,19.30
2022-09-16T16:13:25.897Z,18.80
2022-09-16T16:16:28.209Z,18.30
2022-09-16T16:19:30.550Z,16.60
2022-09-16T16:22:32.918Z,17.90
2022-09-16T16:25:35.143Z,16.50
2022-09-16T16:28:38.617Z,15.90
2022-09-16T16:31:40.898Z,15.30
2022-09-16T16:34:50.330Z,17.00
2022-09-16T16:37:52.425Z,17.00
2022-09-16T16:40:54.558Z,17.80
2022-09-16T16:43:56.620Z,18.70
2022-09-16T16:46:58.775Z,17.20
2022-09-16T16:50:01.730Z,15.30
2022-09-16T16:53:03.849Z,13.80
2022-09-16T16:56:15.194Z,12.90
2022-09-16T16:59:17.984Z,12.40
2022-09-16T17:02:20.204Z,12.90
2022-09-16T17:05:22.325Z,15.10
2022-09-16T17:08:24.432Z,16.00
2022-09-16T17:11:26.771Z,16.80
2022-09-16T17:14:30.230Z,15.20
2022-09-16T17:17:32.305Z,13.30
2022-09-16T17:20:34.375Z,12.50
2022-09-16T17:23:36.567Z,12.40
2022-09-16T17:26:39.742Z,11.90
2022-09-16T17:29:41.808Z,11.50
2022-09-16T17:32:43.875Z,11.50
2022-09-16T17:35:45.920Z,11.70
2022-09-16T17:38:49.218Z,11.50
2022-09-16T17:41:51.516Z,11.50
2022-09-16T17:44:53.665Z,12.10
2022-09-16T17:47:57.669Z,12.20
2022-09-16T17:50:59.900Z,11.80
2022-09-16T17:54:03.391Z,11.40
2022-09-16T17:57:05.478Z,11.50
2022-09-16T18:00:08.505Z,12.10
2022-09-16T18:03:16.510Z,12.40
2022-09-16T18:06:31.041Z,12.10
2022-09-16T18:09:33.146Z,11.70
2022-09-16T18:12:35.204Z,11.30
2022-09-16T18:15:37.330Z,10.80
2022-09-16T18:18:40.780Z,10.50
2022-09-16T18:21:42.847Z,10.30
2022-09-16T18:24:44.958Z,10.30
2022-09-16T18:27:47.209Z,10.10
2022-09-16T18:31:00.974Z,10.10
2022-09-16T18:34:03.218Z,10.10
2022-09-16T18:37:05.340Z,10.00
2022-09-16T18:40:08.634Z,9.90
2022-09-16T18:43:10.779Z,10.00
2022-09-16T18:46:26.164Z,9.90
2022-09-16T18:49:30.171Z,10.00
2022-09-16T18:52:32.271Z,9.90
2022-09-16T18:55:34.306Z,9.80
2022-09-16T18:58:36.343Z,9.70
2022-09-16T19:01:39.177Z,9.60
2022-09-16T19:04:42.829Z,9.70
2022-09-16T19:07:44.879Z,9.60
2022-09-16T19:10:47.784Z,9.20
2022-09-16T19:13:50.350Z,8.50
2022-09-16T19:16:53.193Z,8.20
2022-09-16T19:19:55.329Z,8.30
2022-09-16T19:22:57.396Z,8.50
2022-09-16T19:26:03.771Z,8.70
2022-09-16T19:29:06.967Z,9.00
2022-09-16T19:32:09.029Z,8.70
2022-09-16T19:35:11.206Z,7.90
2022-09-16T19:38:13.242Z,7.60
2022-09-16T19:41:15.839Z,7.90
2022-09-16T19:44:18.117Z,8.20
2022-09-16T19:47:20.208Z,8.20
2022-09-16T19:50:22.376Z,8.20
2022-09-16T19:53:24.443Z,8.30
2022-09-16T19:56:28.559Z,8.10
2022-09-16T19:59:30.639Z,7.80
2022-09-16T20:02:33.030Z,7.90
2022-09-16T20:05:35.360Z,8.20
2022-09-16T20:08:39.507Z,8.20
2022-09-16T20:11:44.738Z,8.10
2022-09-16T20:14:46.824Z,8.20
2022-09-16T20:17:48.887Z,8.30
2022-09-16T20:20:50.934Z,8.30
2022-09-16T20:23:53.672Z,8.20
2022-09-16T20:26:57.380Z,8.30
2022-09-16T20:29:59.481Z,8.50
2022-09-16T20:33:01.555Z,8.50
2022-09-16T20:36:11.774Z,8.50
2022-09-16T20:39:14.476Z,8.50
2022-09-16T20:42:16.835Z,8.30
2022-09-16T20:45:18.947Z,8.40
2022-09-16T20:48:21.048Z,8.40
2022-09-16T20:51:25.651Z,8.40
2022-09-16T20:54:27.743Z,8.40
2022-09-16T20:57:29.871Z,8.40
2022-09-16T21:00:32.956Z,8.40
2022-09-16T21:03:35.142Z,8.30
2022-09-16T21:06:37.413Z,8.30
2022-09-16T21:09:39.787Z,8.10
2022-09-16T21:12:41.895Z,8.10
2022-09-16T21:15:44.027Z,8.10
2022-09-16T21:18:46.177Z,8.30
2022-09-16T21:21:48.540Z,8.40
2022-09-16T21:24:50.726Z,8.30
2022-09-16T21:27:52.835Z,8.20
2022-09-16T21:31:02.478Z,8.20
2022-09-16T21:34:06.369Z,8.20
2022-09-16T21:37:08.484Z,8.10
2022-09-16T21:40:12.410Z,8.10
2022-09-16T21:43:14.524Z,8.00
2022-09-16T21:46:22.112Z,8.00
2022-09-16T21:49:25.712Z,7.70
2022-09-16T21:52:27.896Z,7.60
2022-09-16T21:55:30.611Z,7.70
2022-09-16T21:58:33.057Z,7.70
2022-09-16T22:01:35.585Z,7.70
2022-09-16T22:04:37.729Z,7.60
2022-09-16T22:07:39.795Z,7.70
2022-09-16T22:10:41.867Z,7.60
2022-09-16T22:13:43.917Z,7.50
2022-09-16T22:16:46.104Z,7.50
2022-09-16T22:19:48.207Z,7.60
2022-09-16T22:22:50.380Z,7.70
2022-09-16T22:25:52.486Z,7.70
2022-09-16T22:28:54.583Z,7.60
2022-09-16T22:31:56.629Z,7.70
2022-09-16T22:34:58.694Z,7.80
2022-09-16T22:38:00.878Z,7.90
2022-09-16T22:41:07.320Z,7.90
2022-09-16T22:44:09.515Z,7.80
2022-09-16T22:47:11.616Z,7.60
2022-09-16T22:50:13.796Z,7.70
2022-09-16T22:53:15.840Z,7.70
2022-09-16T22:56:20.791Z,7.70
2022-09-16T22:59:23.371Z,7.70
2022-09-16T23:02:25.497Z,7.60
2022-09-16T23:05:27.978Z,7.70
2022-09-16T23:08:30.771Z,7.60
2022-09-16T23:11:34.431Z,7.60
2022-09-16T23:14:37.038Z,7.60
2022-09-16T23:17:41.358Z,7.50
2022-09-16T23:20:43.445Z,7.50
2022-09-16T23:23:53.719Z,7.50
2022-09-16T23:26:55.923Z,7.50
2022-09-16T23:29:58.145Z,7.60
2022-09-16T23:33:00.170Z,7.60
2022-09-16T23:36:02.855Z,7.50
2022-09-16T23:39:06.503Z,7.40
2022-09-16T23:42:08.774Z,7.40
2022-09-16T23:45:11.090Z,7.40
2022-09-16T23:48:13.383Z,7.30
2022-09-16T23:51:15.423Z,7.40
2022-09-16T23:54:17.576Z,7.30
2022-09-16T23:57:19.642Z,7.20
